sensor_id;sensor_type;location;lat;lon;timestamp;noise_LAeq;noise_LA_min;noise_LA_max;noise_LA01;noise_LA95
79288;Laerm;68737;53.946;27.634;2023-03-26T00:02:29;45.265129;38.204300;56.212555;;
79288;Laerm;68737;53.946;27.634;2023-03-26T00:04:59;42.359810;37.526932;51.958504;;
79288;Laerm;68737;53.946;27.634;2023-03-26T00:07:29;43.089577;38.150497;54.510681;;
79288;Laerm;68737;53.946;27.634;2023-03-26T00:09:59;43.897957;38.846649;64.143341;;
79288;Laerm;68737;53.946;27.634;2023-03-26T00:12:29;42.636177;38.779022;52.307602;;
79288;Laerm;68737;53.946;27.634;2023-03-26T00:14:59;43.182442;38.470734;54.896927;;
79288;Laerm;68737;53.946;27.634;2023-03-26T00:17:29;43.578918;39.134476;55.809845;;
79288;Laerm;68737;53.946;27.634;2023-03-26T00:19:59;41.426926;38.131035;52.259262;;
79288;Laerm;68737;53.946;27.634;2023-03-26T00:22:29;44.892967;38.298996;56.871002;;
79288;Laerm;68737;53.946;27.634;2023-03-26T00:24:59;42.177559;38.862106;47.956131;;
79288;Laerm;68737;53.946;27.634;2023-03-26T00:27:29;41.223480;37.969177;45.077034;;
79288;Laerm;68737;53.946;27.634;2023-03-26T00:29:59;43.221169;38.009651;52.624893;;
79288;Laerm;68737;53.946;27.634;2023-03-26T00:32:29;40.786995;37.745216;44.204956;;
79288;Laerm;68737;53.946;27.634;2023-03-26T00:34:59;42.760178;37.960228;51.641640;;
79288;Laerm;68737;53.946;27.634;2023-03-26T00:37:29;42.868698;38.466522;52.762680;;
79288;Laerm;68737;53.946;27.634;2023-03-26T00:39:59;44.189751;38.424438;56.558121;;
79288;Laerm;68737;53.946;27.634;2023-03-26T00:42:29;44.809425;38.675232;57.070511;;
79288;Laerm;68737;53.946;27.634;2023-03-26T00:44:59;48.487717;38.701385;60.669903;;
79288;Laerm;68737;53.946;27.634;2023-03-26T00:47:29;42.282776;38.413940;53.440491;;
79288;Laerm;68737;53.946;27.634;2023-03-26T00:49:59;43.521347;37.994728;62.303520;;
79288;Laerm;68737;53.946;27.634;2023-03-26T00:52:29;41.779427;38.358269;52.454727;;
79288;Laerm;68737;53.946;27.634;2023-03-26T00:54:59;43.125702;38.086304;54.466606;;
79288;Laerm;68737;53.946;27.634;2023-03-26T00:57:29;41.554993;37.919296;47.176292;;
79288;Laerm;68737;53.946;27.634;2023-03-26T00:59:59;44.886864;38.052483;57.878845;;
79288;Laerm;68737;53.946;27.634;2023-03-26T01:02:29;41.679573;38.103172;50.309990;;
79288;Laerm;68737;53.946;27.634;2023-03-26T01:04:59;42.066177;37.586777;54.016388;;
79288;Laerm;68737;53.946;27.634;2023-03-26T01:07:29;43.957359;38.068787;65.034134;;
79288;Laerm;68737;53.946;27.634;2023-03-26T01:09:59;41.089935;39.129181;43.845551;;
79288;Laerm;68737;53.946;27.634;2023-03-26T01:12:29;41.663307;38.275444;52.340240;;
79288;Laerm;68737;53.946;27.634;2023-03-26T01:14:59;43.673485;38.394089;54.859741;;
79288;Laerm;68737;53.946;27.634;2023-03-26T01:17:29;40.294785;37.733070;46.842667;;
79288;Laerm;68737;53.946;27.634;2023-03-26T01:22:29;42.194931;37.670845;55.207344;;
79288;Laerm;68737;53.946;27.634;2023-03-26T01:24:59;40.729546;37.167282;50.794876;;
79288;Laerm;68737;53.946;27.634;2023-03-26T01:37:32;43.724808;38.226776;55.058647;;
79288;Laerm;68737;53.946;27.634;2023-03-26T01:45:02;40.442070;37.379433;51.535202;;
79288;Laerm;68737;53.946;27.634;2023-03-26T01:47:29;40.119980;36.660431;49.760490;;
79288;Laerm;68737;53.946;27.634;2023-03-26T01:49:59;39.626030;37.120560;45.431931;;
79288;Laerm;68737;53.946;27.634;2023-03-26T01:52:29;43.225510;37.168633;56.317581;;
79288;Laerm;68737;53.946;27.634;2023-03-26T01:54:59;40.199219;37.240387;47.112572;;
79288;Laerm;68737;53.946;27.634;2023-03-26T01:57:43;43.821014;37.849892;54.561111;;
79288;Laerm;68737;53.946;27.634;2023-03-26T02:10:02;43.656334;37.661621;56.594482;;
79288;Laerm;68737;53.946;27.634;2023-03-26T02:12:29;43.004677;37.315247;54.107109;;
79288;Laerm;68737;53.946;27.634;2023-03-26T02:15:00;46.943207;38.049309;60.060448;;
79288;Laerm;68737;53.946;27.634;2023-03-26T02:17:29;43.116409;37.089386;56.378456;;
79288;Laerm;68737;53.946;27.634;2023-03-26T02:19:59;42.802376;36.993553;57.605522;;
79288;Laerm;68737;53.946;27.634;2023-03-26T02:22:29;39.061630;36.896538;45.860733;;
79288;Laerm;68737;53.946;27.634;2023-03-26T02:24:59;41.288872;37.128792;56.938820;;
79288;Laerm;68737;53.946;27.634;2023-03-26T02:27:29;47.635811;37.375320;61.703560;;
79288;Laerm;68737;53.946;27.634;2023-03-26T02:29:59;45.903374;38.033516;61.619232;;
79288;Laerm;68737;53.946;27.634;2023-03-26T02:32:29;41.080696;36.990730;53.754295;;
79288;Laerm;68737;53.946;27.634;2023-03-26T02:34:59;39.590935;37.173080;45.595360;;
79288;Laerm;68737;53.946;27.634;2023-03-26T02:37:29;44.525909;37.375809;54.775558;;
79288;Laerm;68737;53.946;27.634;2023-03-26T02:39:59;44.771072;37.452477;58.700111;;
79288;Laerm;68737;53.946;27.634;2023-03-26T02:42:29;39.492683;36.957245;43.421272;;
79288;Laerm;68737;53.946;27.634;2023-03-26T02:44:59;49.528114;37.215179;66.630707;;
79288;Laerm;68737;53.946;27.634;2023-03-26T02:47:29;42.806961;37.473503;53.044510;;
79288;Laerm;68737;53.946;27.634;2023-03-26T02:49:59;40.079369;37.162987;57.766769;;
79288;Laerm;68737;53.946;27.634;2023-03-26T02:52:29;40.938164;37.692612;49.950516;;
79288;Laerm;68737;53.946;27.634;2023-03-26T02:54:59;39.731674;37.482971;43.011520;;
79288;Laerm;68737;53.946;27.634;2023-03-26T02:57:29;45.543327;38.397491;55.601166;;
79288;Laerm;68737;53.946;27.634;2023-03-26T02:59:59;40.129211;37.110588;47.644775;;
79288;Laerm;68737;53.946;27.634;2023-03-26T03:02:29;45.843735;37.672508;60.951153;;
79288;Laerm;68737;53.946;27.634;2023-03-26T03:04:59;42.744637;37.976456;55.885765;;
79288;Laerm;68737;53.946;27.634;2023-03-26T03:07:29;43.635529;38.125641;52.878929;;
79288;Laerm;68737;53.946;27.634;2023-03-26T03:09:59;45.383598;37.761345;56.898911;;
79288;Laerm;68737;53.946;27.634;2023-03-26T03:12:29;43.634033;38.030762;54.162376;;
79288;Laerm;68737;53.946;27.634;2023-03-26T03:14:59;44.750114;37.690186;59.729965;;
79288;Laerm;68737;53.946;27.634;2023-03-26T03:17:29;42.917496;37.503235;54.766464;;
79288;Laerm;68737;53.946;27.634;2023-03-26T03:19:59;42.115646;37.709709;53.576996;;
79288;Laerm;68737;53.946;27.634;2023-03-26T03:22:29;48.714722;38.477051;65.670578;;
79288;Laerm;68737;53.946;27.634;2023-03-26T03:24:59;44.705513;37.599007;57.061409;;
79288;Laerm;68737;53.946;27.634;2023-03-26T03:27:29;46.837646;38.763359;55.416252;;
79288;Laerm;68737;53.946;27.634;2023-03-26T03:29:59;47.867989;37.864296;60.095230;;
79288;Laerm;68737;53.946;27.634;2023-03-26T03:32:29;48.793015;38.734116;60.409840;;
79288;Laerm;68737;53.946;27.634;2023-03-26T03:34:59;44.507835;38.371590;70.222885;;
79288;Laerm;68737;53.946;27.634;2023-03-26T03:37:29;48.709160;38.621376;62.185299;;
79288;Laerm;68737;53.946;27.634;2023-03-26T03:39:59;47.235146;38.103333;63.889370;;
79288;Laerm;68737;53.946;27.634;2023-03-26T03:42:29;49.222000;38.215317;62.567913;;
79288;Laerm;68737;53.946;27.634;2023-03-26T03:44:59;47.352470;39.779381;59.616123;;
79288;Laerm;68737;53.946;27.634;2023-03-26T03:47:28;47.747246;40.221367;55.911690;;
79288;Laerm;68737;53.946;27.634;2023-03-26T03:49:59;47.428040;38.414703;61.939087;;
79288;Laerm;68737;53.946;27.634;2023-03-26T03:52:28;47.700943;39.038910;60.807365;;
79288;Laerm;68737;53.946;27.634;2023-03-26T03:54:58;48.643738;40.037407;60.955833;;
79288;Laerm;68737;53.946;27.634;2023-03-26T03:57:29;44.796776;39.015755;58.031807;;
79288;Laerm;68737;53.946;27.634;2023-03-26T04:00:00;47.421722;39.915817;64.306046;;
79288;Laerm;68737;53.946;27.634;2023-03-26T04:02:28;48.651550;39.664612;61.511532;;
79288;Laerm;68737;53.946;27.634;2023-03-26T04:04:59;50.360817;40.584396;60.949242;;
79288;Laerm;68737;53.946;27.634;2023-03-26T04:07:29;46.079597;39.306267;59.577583;;
79288;Laerm;68737;53.946;27.634;2023-03-26T04:09:59;45.491600;39.026253;65.733337;;
79288;Laerm;68737;53.946;27.634;2023-03-26T04:12:29;47.719109;38.872269;61.340809;;
79288;Laerm;68737;53.946;27.634;2023-03-26T04:14:59;43.718468;38.675552;53.659782;;
79288;Laerm;68737;53.946;27.634;2023-03-26T04:17:28;49.058228;38.683899;63.627583;;
79288;Laerm;68737;53.946;27.634;2023-03-26T04:19:58;49.310898;39.548088;58.084579;;
79288;Laerm;68737;53.946;27.634;2023-03-26T04:22:28;50.454506;38.826088;64.725220;;
79288;Laerm;68737;53.946;27.634;2023-03-26T04:24:58;48.448219;39.349724;60.658600;;
79288;Laerm;68737;53.946;27.634;2023-03-26T04:27:29;44.444809;38.557434;60.798016;;
79288;Laerm;68737;53.946;27.634;2023-03-26T04:29:58;48.918388;39.856544;60.487617;;
79288;Laerm;68737;53.946;27.634;2023-03-26T04:32:29;46.154457;38.388481;57.061836;;
79288;Laerm;68737;53.946;27.634;2023-03-26T04:34:59;51.473877;39.663589;61.608215;;
79288;Laerm;68737;53.946;27.634;2023-03-26T04:39:59;48.754166;39.619812;66.478775;;
79288;Laerm;68737;53.946;27.634;2023-03-26T04:42:28;47.694466;39.951675;64.504143;;
79288;Laerm;68737;53.946;27.634;2023-03-26T04:44:58;47.803131;41.673195;62.374626;;
79288;Laerm;68737;53.946;27.634;2023-03-26T04:47:28;51.161659;42.154160;68.525391;;
79288;Laerm;68737;53.946;27.634;2023-03-26T04:49:58;50.623207;43.242104;59.599201;;
79288;Laerm;68737;53.946;27.634;2023-03-26T04:52:28;51.114395;44.723747;60.283939;;
79288;Laerm;68737;53.946;27.634;2023-03-26T04:54:59;50.945137;45.662933;67.080986;;
79288;Laerm;68737;53.946;27.634;2023-03-26T04:57:31;54.091522;45.475494;65.784500;;
79288;Laerm;68737;53.946;27.634;2023-03-26T04:59:58;51.916862;46.860207;66.449814;;
79288;Laerm;68737;53.946;27.634;2023-03-26T05:02:28;53.140770;46.993698;64.328453;;
79288;Laerm;68737;53.946;27.634;2023-03-26T05:04:58;55.955017;50.337120;65.752846;;
79288;Laerm;68737;53.946;27.634;2023-03-26T05:07:28;56.064995;52.000435;66.557159;;
79288;Laerm;68737;53.946;27.634;2023-03-26T05:09:58;57.024200;51.602486;64.717117;;
79288;Laerm;68737;53.946;27.634;2023-03-26T05:12:28;57.589005;52.405495;67.080185;;
79288;Laerm;68737;53.946;27.634;2023-03-26T05:14:58;59.322960;52.623886;67.840408;;
79288;Laerm;68737;53.946;27.634;2023-03-26T05:17:28;54.077400;47.489708;64.660080;;
79288;Laerm;68737;53.946;27.634;2023-03-26T05:19:59;56.296135;46.674408;65.994461;;
79288;Laerm;68737;53.946;27.634;2023-03-26T05:22:28;54.613518;46.338676;65.637497;;
79288;Laerm;68737;53.946;27.634;2023-03-26T05:24:58;57.264145;47.496101;66.151779;;
79288;Laerm;68737;53.946;27.634;2023-03-26T05:27:28;56.309410;46.505714;66.609566;;
79288;Laerm;68737;53.946;27.634;2023-03-26T05:29:59;57.071869;48.459740;71.522476;;
79288;Laerm;68737;53.946;27.634;2023-03-26T05:32:29;53.959038;49.619484;64.654785;;
79288;Laerm;68737;53.946;27.634;2023-03-26T05:34:58;56.571968;48.692482;71.314026;;
79288;Laerm;68737;53.946;27.634;2023-03-26T05:37:28;55.937515;48.257179;71.315918;;
79288;Laerm;68737;53.946;27.634;2023-03-26T05:39:58;56.063148;46.703239;67.671371;;
79288;Laerm;68737;53.946;27.634;2023-03-26T05:42:28;56.894058;46.386154;70.179123;;
79288;Laerm;68737;53.946;27.634;2023-03-26T05:44:58;55.000717;42.828743;69.270248;;
79288;Laerm;68737;53.946;27.634;2023-03-26T05:47:28;53.831863;42.436440;70.469360;;
79288;Laerm;68737;53.946;27.634;2023-03-26T05:49:58;55.777283;42.464325;66.384018;;
79288;Laerm;68737;53.946;27.634;2023-03-26T05:52:28;53.887741;41.483253;68.369598;;
79288;Laerm;68737;53.946;27.634;2023-03-26T05:54:58;54.245476;42.162682;71.597702;;
79288;Laerm;68737;53.946;27.634;2023-03-26T05:57:30;54.069916;41.899643;64.613724;;
79288;Laerm;68737;53.946;27.634;2023-03-26T05:59:58;52.918556;42.300804;73.157913;;
79288;Laerm;68737;53.946;27.634;2023-03-26T06:02:29;51.414032;40.516609;69.891861;;
79288;Laerm;68737;53.946;27.634;2023-03-26T06:04:58;54.335739;43.483376;71.384659;;
79288;Laerm;68737;53.946;27.634;2023-03-26T06:07:28;49.992409;40.812973;67.461624;;
79288;Laerm;68737;53.946;27.634;2023-03-26T06:09:58;54.930870;41.325783;70.751938;;
79288;Laerm;68737;53.946;27.634;2023-03-26T06:12:28;55.572968;42.133835;75.574051;;
79288;Laerm;68737;53.946;27.634;2023-03-26T06:14:58;54.942017;41.712997;70.660492;;
79288;Laerm;68737;53.946;27.634;2023-03-26T06:17:28;55.504753;43.194916;65.119698;;
79288;Laerm;68737;53.946;27.634;2023-03-26T06:19:58;52.417404;41.010712;72.445877;;
79288;Laerm;68737;53.946;27.634;2023-03-26T06:22:28;55.832283;45.640648;69.755264;;
79288;Laerm;68737;53.946;27.634;2023-03-26T06:25:00;56.039024;44.591148;69.139252;;
79288;Laerm;68737;53.946;27.634;2023-03-26T06:27:28;54.503113;41.427383;68.768959;;
79288;Laerm;68737;53.946;27.634;2023-03-26T06:30:02;54.651001;41.340866;70.587967;;
79288;Laerm;68737;53.946;27.634;2023-03-26T06:35:02;52.357643;40.577560;64.558792;;
79288;Laerm;68737;53.946;27.634;2023-03-26T06:37:28;54.828918;43.534119;63.977791;;
79288;Laerm;68737;53.946;27.634;2023-03-26T06:39:58;54.515388;42.724777;64.019363;;
79288;Laerm;68737;53.946;27.634;2023-03-26T06:42:35;54.374626;41.888771;67.085953;;
79288;Laerm;68737;53.946;27.634;2023-03-26T06:47:28;53.788391;41.755569;72.145020;;
79288;Laerm;68737;53.946;27.634;2023-03-26T06:49:58;54.665947;41.968933;64.858292;;
79288;Laerm;68737;53.946;27.634;2023-03-26T06:52:33;56.322334;45.459778;71.309570;;
79288;Laerm;68737;53.946;27.634;2023-03-26T06:57:28;55.956650;43.573868;68.050644;;
79288;Laerm;68737;53.946;27.634;2023-03-26T06:59:58;51.873627;41.701714;61.663113;;
79288;Laerm;68737;53.946;27.634;2023-03-26T07:02:28;55.059059;43.193459;63.898003;;
79288;Laerm;68737;53.946;27.634;2023-03-26T07:04:58;55.830444;42.497169;62.865963;;
79288;Laerm;68737;53.946;27.634;2023-03-26T07:09:58;54.974983;43.170029;71.759033;;
79288;Laerm;68737;53.946;27.634;2023-03-26T07:12:28;53.861610;44.149590;71.583420;;
79288;Laerm;68737;53.946;27.634;2023-03-26T07:15:03;55.926323;44.304115;64.225708;;
79288;Laerm;68737;53.946;27.634;2023-03-26T07:17:28;54.532265;45.291595;61.507156;;
79288;Laerm;68737;53.946;27.634;2023-03-26T07:22:29;55.456947;45.996887;68.044266;;
79288;Laerm;68737;53.946;27.634;2023-03-26T07:25:01;52.843819;44.184692;61.993702;;
79288;Laerm;68737;53.946;27.634;2023-03-26T07:47:29;54.989799;43.826004;63.112652;;
79288;Laerm;68737;53.946;27.634;2023-03-26T07:49:58;53.418190;43.169853;62.654972;;
79288;Laerm;68737;53.946;27.634;2023-03-26T07:52:33;54.605904;44.584938;63.500629;;
79288;Laerm;68737;53.946;27.634;2023-03-26T07:54:58;54.779488;44.024254;62.722172;;
79288;Laerm;68737;53.946;27.634;2023-03-26T08:00:20;56.491043;45.204369;65.626251;;
79288;Laerm;68737;53.946;27.634;2023-03-26T08:02:31;51.444885;41.521439;62.927200;;
79288;Laerm;68737;53.946;27.634;2023-03-26T08:34:58;56.809891;44.886856;66.660446;;
79288;Laerm;68737;53.946;27.634;2023-03-26T08:37:32;56.449371;43.159439;68.584915;;
79288;Laerm;68737;53.946;27.634;2023-03-26T08:40:00;55.288597;45.339088;61.707115;;
79288;Laerm;68737;53.946;27.634;2023-03-26T09:30:23;55.662613;42.701202;68.067299;;
79288;Laerm;68737;53.946;27.634;2023-03-26T09:42:31;54.769455;43.516182;61.937744;;
79288;Laerm;68737;53.946;27.634;2023-03-26T09:55:01;55.670570;44.900803;65.147385;;
79288;Laerm;68737;53.946;27.634;2023-03-26T10:02:36;54.498039;45.028481;62.759502;;
79288;Laerm;68737;53.946;27.634;2023-03-26T10:05:01;55.627655;43.289619;72.163490;;
79288;Laerm;68737;53.946;27.634;2023-03-26T10:52:33;54.475586;44.481918;74.931000;;
79288;Laerm;68737;53.946;27.634;2023-03-26T11:00:06;51.140823;42.329193;61.294094;;
79288;Laerm;68737;53.946;27.634;2023-03-26T11:02:29;52.904953;42.985336;60.356461;;
79288;Laerm;68737;53.946;27.634;2023-03-26T11:35:14;52.869392;42.653915;66.623871;;
79288;Laerm;68737;53.946;27.634;2023-03-26T11:39:58;53.367737;45.401283;62.882961;;
79288;Laerm;68737;53.946;27.634;2023-03-26T11:42:28;51.815857;42.927643;60.463661;;
79288;Laerm;68737;53.946;27.634;2023-03-26T11:44:59;54.381348;44.183647;75.669113;;
79288;Laerm;68737;53.946;27.634;2023-03-26T11:47:31;51.790070;42.285614;66.887985;;
79288;Laerm;68737;53.946;27.634;2023-03-26T11:49:58;53.037643;40.286621;64.836365;;
79288;Laerm;68737;53.946;27.634;2023-03-26T11:52:28;53.093269;42.594582;61.649090;;
79288;Laerm;68737;53.946;27.634;2023-03-26T11:54:58;53.450638;42.664566;64.405441;;
79288;Laerm;68737;53.946;27.634;2023-03-26T12:02:36;66.689621;48.757202;88.840103;;
79288;Laerm;68737;53.946;27.634;2023-03-26T12:07:29;60.719887;50.576813;69.361389;;
79288;Laerm;68737;53.946;27.634;2023-03-26T12:19:58;58.628220;50.783676;66.278625;;
79288;Laerm;68737;53.946;27.634;2023-03-26T12:27:28;59.722954;51.378937;68.339691;;
79288;Laerm;68737;53.946;27.634;2023-03-26T12:29:59;60.190769;49.742249;69.534180;;
79288;Laerm;68737;53.946;27.634;2023-03-26T12:32:32;59.798183;53.130188;71.807838;;
79288;Laerm;68737;53.946;27.634;2023-03-26T12:35:03;60.787384;53.323380;69.850372;;
79288;Laerm;68737;53.946;27.634;2023-03-26T12:44:58;59.971298;47.723373;71.258705;;
79288;Laerm;68737;53.946;27.634;2023-03-26T12:49:58;58.543228;47.375580;69.373642;;
79288;Laerm;68737;53.946;27.634;2023-03-26T13:17:33;57.571129;45.276405;67.863747;;
79288;Laerm;68737;53.946;27.634;2023-03-26T13:47:28;60.965458;53.755447;71.120285;;
79288;Laerm;68737;53.946;27.634;2023-03-26T13:57:29;59.046539;48.278664;73.130783;;
79288;Laerm;68737;53.946;27.634;2023-03-26T14:02:29;56.846565;47.533920;66.240463;;
79288;Laerm;68737;53.946;27.634;2023-03-26T14:54:58;54.379128;44.077011;67.703712;;
79288;Laerm;68737;53.946;27.634;2023-03-26T15:12:35;56.263344;47.048073;64.097229;;
79288;Laerm;68737;53.946;27.634;2023-03-26T15:42:30;57.507912;46.456398;66.107605;;
79288;Laerm;68737;53.946;27.634;2023-03-26T15:52:33;57.978386;46.403725;66.118896;;
79288;Laerm;68737;53.946;27.634;2023-03-26T15:57:30;55.209496;43.889427;65.301224;;
79288;Laerm;68737;53.946;27.634;2023-03-26T16:07:33;55.463417;45.361885;73.419250;;
79288;Laerm;68737;53.946;27.634;2023-03-26T16:10:01;56.703796;46.940315;68.859192;;
79288;Laerm;68737;53.946;27.634;2023-03-26T16:17:28;55.383461;45.935181;64.793640;;
79288;Laerm;68737;53.946;27.634;2023-03-26T16:34:58;55.524773;44.565590;80.862274;;
79288;Laerm;68737;53.946;27.634;2023-03-26T16:42:29;53.161339;42.970131;65.312790;;
79288;Laerm;68737;53.946;27.634;2023-03-26T16:47:29;55.960747;43.764107;64.842819;;
79288;Laerm;68737;53.946;27.634;2023-03-26T16:57:34;54.547577;47.440529;63.599682;;
79288;Laerm;68737;53.946;27.634;2023-03-26T17:02:30;54.925285;44.871620;63.271458;;
79288;Laerm;68737;53.946;27.634;2023-03-26T17:12:50;52.755264;42.208076;62.311672;;
79288;Laerm;68737;53.946;27.634;2023-03-26T17:34:58;52.022331;42.568428;61.570435;;
79288;Laerm;68737;53.946;27.634;2023-03-26T17:42:30;54.562004;43.143913;63.752880;;
79288;Laerm;68737;53.946;27.634;2023-03-26T17:54:57;52.608627;44.335220;61.264679;;
79288;Laerm;68737;53.946;27.634;2023-03-26T17:59:57;50.454437;43.519508;61.481998;;
79288;Laerm;68737;53.946;27.634;2023-03-26T18:10:03;54.752373;43.368340;65.576050;;
79288;Laerm;68737;53.946;27.634;2023-03-26T18:22:27;51.129150;42.373833;61.100346;;
79288;Laerm;68737;53.946;27.634;2023-03-26T18:25:02;52.633736;42.545029;62.461586;;
79288;Laerm;68737;53.946;27.634;2023-03-26T18:32:28;49.848755;41.466606;65.395882;;
79288;Laerm;68737;53.946;27.634;2023-03-26T18:34:58;51.747429;41.404251;61.571854;;
79288;Laerm;68737;53.946;27.634;2023-03-26T18:37:28;51.602440;41.626251;64.288605;;
79288;Laerm;68737;53.946;27.634;2023-03-26T18:42:28;51.350266;41.865097;63.310093;;
79288;Laerm;68737;53.946;27.634;2023-03-26T18:44:57;51.331009;40.585037;66.766785;;
79288;Laerm;68737;53.946;27.634;2023-03-26T18:49:57;52.309418;41.238434;62.082169;;
79288;Laerm;68737;53.946;27.634;2023-03-26T18:52:27;52.020172;41.937340;60.179882;;
79288;Laerm;68737;53.946;27.634;2023-03-26T18:54:57;51.790344;41.757591;61.971718;;
79288;Laerm;68737;53.946;27.634;2023-03-26T18:57:27;48.235443;41.227966;56.775314;;
79288;Laerm;68737;53.946;27.634;2023-03-26T19:00:04;53.358749;44.183456;81.108749;;
79288;Laerm;68737;53.946;27.634;2023-03-26T19:02:27;56.314484;46.653946;79.839943;;
79288;Laerm;68737;53.946;27.634;2023-03-26T19:05:00;58.821541;50.372078;83.145714;;
79288;Laerm;68737;53.946;27.634;2023-03-26T19:07:32;57.110405;48.529472;72.328461;;
79288;Laerm;68737;53.946;27.634;2023-03-26T19:09:57;56.252708;45.435066;66.770584;;
79288;Laerm;68737;53.946;27.634;2023-03-26T19:12:28;54.252457;44.337418;67.570663;;
79288;Laerm;68737;53.946;27.634;2023-03-26T19:19:59;52.782799;41.764290;68.105995;;
79288;Laerm;68737;53.946;27.634;2023-03-26T19:22:27;53.792046;43.316444;63.970676;;
79288;Laerm;68737;53.946;27.634;2023-03-26T19:24:58;54.933220;42.882271;65.860313;;
79288;Laerm;68737;53.946;27.634;2023-03-26T19:27:31;55.075394;40.782814;64.509674;;
79288;Laerm;68737;53.946;27.634;2023-03-26T19:29:57;50.727188;40.451309;63.658844;;
79288;Laerm;68737;53.946;27.634;2023-03-26T19:32:32;53.802994;40.603745;64.982803;;
79288;Laerm;68737;53.946;27.634;2023-03-26T19:35:02;54.434608;43.299995;73.867615;;
79288;Laerm;68737;53.946;27.634;2023-03-26T19:42:33;52.192276;40.333839;65.116982;;
79288;Laerm;68737;53.946;27.634;2023-03-26T19:44:58;50.461044;39.600510;62.649300;;
79288;Laerm;68737;53.946;27.634;2023-03-26T19:49:58;46.023834;39.597198;57.386650;;
79288;Laerm;68737;53.946;27.634;2023-03-26T19:52:31;51.062630;39.802101;67.938042;;
79288;Laerm;68737;53.946;27.634;2023-03-26T19:59:57;51.628006;40.408157;64.500626;;
79288;Laerm;68737;53.946;27.634;2023-03-26T20:02:34;51.336243;40.785477;61.263554;;
79288;Laerm;68737;53.946;27.634;2023-03-26T20:04:59;51.280273;39.619942;62.064816;;
79288;Laerm;68737;53.946;27.634;2023-03-26T20:07:27;47.565285;38.102196;60.895084;;
79288;Laerm;68737;53.946;27.634;2023-03-26T20:10:00;49.757881;38.936806;64.118370;;
79288;Laerm;68737;53.946;27.634;2023-03-26T20:12:34;50.477432;39.939102;60.999672;;
79288;Laerm;68737;53.946;27.634;2023-03-26T20:15:04;54.251778;39.896797;64.371552;;
79288;Laerm;68737;53.946;27.634;2023-03-26T20:17:27;48.353966;38.664551;60.708138;;
79288;Laerm;68737;53.946;27.634;2023-03-26T20:19:57;50.882980;39.689102;59.474392;;
79288;Laerm;68737;53.946;27.634;2023-03-26T20:24:57;51.560402;39.212563;65.378479;;
79288;Laerm;68737;53.946;27.634;2023-03-26T20:27:32;48.640312;38.693741;62.833164;;
79288;Laerm;68737;53.946;27.634;2023-03-26T20:32:27;44.667213;37.929543;71.681808;;
79288;Laerm;68737;53.946;27.634;2023-03-26T20:34:57;50.921379;38.343735;64.106102;;
79288;Laerm;68737;53.946;27.634;2023-03-26T20:37:27;50.635284;39.025322;61.537704;;
79288;Laerm;68737;53.946;27.634;2023-03-26T20:39:57;49.462875;38.890724;63.489029;;
79288;Laerm;68737;53.946;27.634;2023-03-26T20:42:30;44.036827;38.233093;57.086464;;
79288;Laerm;68737;53.946;27.634;2023-03-26T20:44:57;50.661263;38.960182;61.059307;;
79288;Laerm;68737;53.946;27.634;2023-03-26T20:47:31;46.875801;38.432205;72.465042;;
79288;Laerm;68737;53.946;27.634;2023-03-26T20:49:57;47.990372;37.916267;59.760159;;
79288;Laerm;68737;53.946;27.634;2023-03-26T20:52:27;48.691849;37.931007;60.270222;;
79288;Laerm;68737;53.946;27.634;2023-03-26T20:54:57;48.024033;37.666199;59.417755;;
79288;Laerm;68737;53.946;27.634;2023-03-26T20:57:27;49.585648;37.896652;63.045769;;
79288;Laerm;68737;53.946;27.634;2023-03-26T20:59:57;46.359634;37.994606;62.823025;;
79288;Laerm;68737;53.946;27.634;2023-03-26T21:02:29;50.845718;38.664497;63.081257;;
79288;Laerm;68737;53.946;27.634;2023-03-26T21:04:57;44.618660;37.980118;58.116112;;
79288;Laerm;68737;53.946;27.634;2023-03-26T21:07:27;41.855835;38.311584;67.877457;;
79288;Laerm;68737;53.946;27.634;2023-03-26T21:09:57;43.716011;37.649612;54.958893;;
79288;Laerm;68737;53.946;27.634;2023-03-26T21:12:28;49.578018;37.472145;64.940178;;
79288;Laerm;68737;53.946;27.634;2023-03-26T21:14:57;45.567558;37.752876;60.108089;;
79288;Laerm;68737;53.946;27.634;2023-03-26T21:17:27;49.436928;38.177826;61.279984;;
79288;Laerm;68737;53.946;27.634;2023-03-26T21:19:57;45.240021;38.229874;60.097240;;
79288;Laerm;68737;53.946;27.634;2023-03-26T21:22:29;48.807976;37.877831;63.274029;;
79288;Laerm;68737;53.946;27.634;2023-03-26T21:29:57;43.369423;37.446686;57.070747;;
79288;Laerm;68737;53.946;27.634;2023-03-26T21:32:28;47.668060;38.035683;62.857216;;
79288;Laerm;68737;53.946;27.634;2023-03-26T21:34:57;50.595459;37.741631;64.505058;;
79288;Laerm;68737;53.946;27.634;2023-03-26T21:37:27;43.284019;37.288322;56.465424;;
79288;Laerm;68737;53.946;27.634;2023-03-26T21:39:57;42.166779;37.424812;53.827583;;
79288;Laerm;68737;53.946;27.634;2023-03-26T21:42:27;39.153862;36.723518;53.490898;;